sensor_id;sensor_type;location;lat;lon;timestamp;pressure;altitude;pressure_sealevel;temperature;humidity
5952;BME280;3001;42.622;23.194;2023-07-13T00:01:26;91768.69;;;24.48;68.95
5952;BME280;3001;42.622;23.194;2023-07-13T00:03:53;91764.06;;;24.31;68.52
5952;BME280;3001;42.622;23.194;2023-07-13T00:06:21;91766.00;;;24.44;68.14
5952;BME280;3001;42.622;23.194;2023-07-13T00:08:47;91762.09;;;24.17;69.76
5952;BME280;3001;42.622;23.194;2023-07-13T00:11:15;91756.50;;;24.36;68.67
5952;BME280;3001;42.622;23.194;2023-07-13T00:13:43;91759.19;;;24.43;68.31
5952;BME280;3001;42.622;23.194;2023-07-13T00:16:10;91756.13;;;24.38;68.43
5952;BME280;3001;42.622;23.194;2023-07-13T00:18:39;91755.25;;;24.20;67.87
5952;BME280;3001;42.622;23.194;2023-07-13T00:21:06;91751.47;;;24.17;68.16
5952;BME280;3001;42.622;23.194;2023-07-13T00:23:36;91749.50;;;24.07;69.01
5952;BME280;3001;42.622;23.194;2023-07-13T00:26:05;91747.53;;;23.90;70.21
5952;BME280;3001;42.622;23.194;2023-07-13T00:28:32;91736.59;;;24.02;71.72
5952;BME280;3001;42.622;23.194;2023-07-13T00:30:58;91743.88;;;24.16;72.06
5952;BME280;3001;42.622;23.194;2023-07-13T00:33:26;91738.19;;;24.17;71.86
5952;BME280;3001;42.622;23.194;2023-07-13T00:35:54;91742.34;;;24.11;73.50
5952;BME280;3001;42.622;23.194;2023-07-13T00:38:21;91736.09;;;23.83;72.60
5952;BME280;3001;42.622;23.194;2023-07-13T00:40:49;91732.91;;;24.21;71.75
5952;BME280;3001;42.622;23.194;2023-07-13T00:43:19;91736.69;;;24.16;71.17
5952;BME280;3001;42.622;23.194;2023-07-13T00:46:12;91739.81;;;24.39;70.87
5952;BME280;3001;42.622;23.194;2023-07-13T00:48:40;91745.72;;;24.08;69.16
5952;BME280;3001;42.622;23.194;2023-07-13T00:51:07;91736.97;;;24.04;70.46
5952;BME280;3001;42.622;23.194;2023-07-13T00:53:34;91737.84;;;24.22;68.66
5952;BME280;3001;42.622;23.194;2023-07-13T00:56:03;91731.00;;;24.21;70.14
5952;BME280;3001;42.622;23.194;2023-07-13T00:58:30;91738.94;;;24.14;68.79
5952;BME280;3001;42.622;23.194;2023-07-13T01:00:57;91739.00;;;24.25;69.50
5952;BME280;3001;42.622;23.194;2023-07-13T01:03:24;91740.00;;;23.99;69.29
5952;BME280;3001;42.622;23.194;2023-07-13T01:05:51;91730.88;;;23.97;70.91
5952;BME280;3001;42.622;23.194;2023-07-13T01:08:19;91732.34;;;23.91;71.09
5952;BME280;3001;42.622;23.194;2023-07-13T01:10:53;91736.09;;;23.86;71.67
5952;BME280;3001;42.622;23.194;2023-07-13T01:13:21;91731.97;;;23.89;71.68
5952;BME280;3001;42.622;23.194;2023-07-13T01:15:50;91736.50;;;23.85;72.10
5952;BME280;3001;42.622;23.194;2023-07-13T01:18:18;91731.88;;;23.78;71.52
5952;BME280;3001;42.622;23.194;2023-07-13T01:20:50;91730.31;;;23.70;71.78
5952;BME280;3001;42.622;23.194;2023-07-13T01:23:17;91732.72;;;23.86;69.49
5952;BME280;3001;42.622;23.194;2023-07-13T01:25:44;91721.75;;;23.91;71.82
5952;BME280;3001;42.622;23.194;2023-07-13T01:28:11;91731.84;;;23.71;71.47
5952;BME280;3001;42.622;23.194;2023-07-13T01:30:38;91716.06;;;23.92;71.79
5952;BME280;3001;42.622;23.194;2023-07-13T01:33:05;91724.56;;;23.61;71.74
5952;BME280;3001;42.622;23.194;2023-07-13T01:35:32;91719.22;;;23.54;70.78
5952;BME280;3001;42.622;23.194;2023-07-13T01:38:00;91717.31;;;23.55;71.33
5952;BME280;3001;42.622;23.194;2023-07-13T01:40:28;91721.88;;;23.58;70.34
5952;BME280;3001;42.622;23.194;2023-07-13T01:42:55;91714.25;;;23.53;72.14
5952;BME280;3001;42.622;23.194;2023-07-13T01:45:22;91720.06;;;23.69;71.28
5952;BME280;3001;42.622;23.194;2023-07-13T01:47:48;91721.63;;;23.77;69.29
5952;BME280;3001;42.622;23.194;2023-07-13T01:50:15;91717.53;;;23.32;70.84
5952;BME280;3001;42.622;23.194;2023-07-13T01:52:42;91712.31;;;23.46;71.10
5952;BME280;3001;42.622;23.194;2023-07-13T01:55:10;91710.66;;;23.28;71.57
5952;BME280;3001;42.622;23.194;2023-07-13T01:57:37;91711.00;;;23.23;72.11
5952;BME280;3001;42.622;23.194;2023-07-13T02:00:05;91706.56;;;23.37;71.19
5952;BME280;3001;42.622;23.194;2023-07-13T02:02:32;91707.78;;;23.47;71.40
5952;BME280;3001;42.622;23.194;2023-07-13T02:04:59;91712.97;;;23.83;70.34
5952;BME280;3001;42.622;23.194;2023-07-13T02:07:26;91726.22;;;23.80;69.32
5952;BME280;3001;42.622;23.194;2023-07-13T02:09:52;91719.88;;;23.41;71.10
5952;BME280;3001;42.622;23.194;2023-07-13T02:12:20;91718.75;;;23.45;70.80
5952;BME280;3001;42.622;23.194;2023-07-13T02:14:47;91719.47;;;23.42;nan
5952;BME280;3001;42.622;23.194;2023-07-13T02:17:14;91715.81;;;23.57;70.57
5952;BME280;3001;42.622;23.194;2023-07-13T02:19:40;91723.97;;;23.35;70.71
5952;BME280;3001;42.622;23.194;2023-07-13T02:22:07;91712.72;;;23.52;70.89
5952;BME280;3001;42.622;23.194;2023-07-13T02:24:34;91722.31;;;23.67;69.32
5952;BME280;3001;42.622;23.194;2023-07-13T02:27:01;91729.81;;;23.58;70.26
5952;BME280;3001;42.622;23.194;2023-07-13T02:29:29;91722.75;;;23.72;69.77
5952;BME280;3001;42.622;23.194;2023-07-13T02:31:55;91719.28;;;23.65;71.46
5952;BME280;3001;42.622;23.194;2023-07-13T02:34:23;91721.75;;;23.40;72.44
5952;BME280;3001;42.622;23.194;2023-07-13T02:36:50;91712.00;;;23.51;73.14
5952;BME280;3001;42.622;23.194;2023-07-13T02:39:16;91728.03;;;23.72;70.34
5952;BME280;3001;42.622;23.194;2023-07-13T02:41:43;91711.53;;;23.42;72.74
5952;BME280;3001;42.622;23.194;2023-07-13T02:44:12;91715.53;;;23.22;72.96
5952;BME280;3001;42.622;23.194;2023-07-13T02:46:40;91720.97;;;23.36;73.52
5952;BME280;3001;42.622;23.194;2023-07-13T02:49:07;91717.59;;;23.43;74.58
5952;BME280;3001;42.622;23.194;2023-07-13T02:51:34;91710.63;;;23.21;75.47
5952;BME280;3001;42.622;23.194;2023-07-13T02:54:00;91717.97;;;23.41;75.60
5952;BME280;3001;42.622;23.194;2023-07-13T02:56:28;91719.88;;;23.41;74.51
5952;BME280;3001;42.622;23.194;2023-07-13T02:58:55;91721.78;;;23.44;74.62
5952;BME280;3001;42.622;23.194;2023-07-13T03:01:22;91719.72;;;23.23;74.13
5952;BME280;3001;42.622;23.194;2023-07-13T03:03:51;91718.19;;;23.19;74.53
5952;BME280;3001;42.622;23.194;2023-07-13T03:06:18;91719.03;;;23.33;74.68
5952;BME280;3001;42.622;23.194;2023-07-13T03:08:47;91722.56;;;23.48;73.42
5952;BME280;3001;42.622;23.194;2023-07-13T03:11:17;91722.28;;;23.60;74.53
5952;BME280;3001;42.622;23.194;2023-07-13T03:13:44;91726.63;;;23.85;72.78
5952;BME280;3001;42.622;23.194;2023-07-13T03:16:11;91718.81;;;23.52;74.24
5952;BME280;3001;42.622;23.194;2023-07-13T03:18:38;91720.31;;;23.50;73.97
5952;BME280;3001;42.622;23.194;2023-07-13T03:21:06;91719.81;;;23.37;74.31
5952;BME280;3001;42.622;23.194;2023-07-13T03:23:33;91719.47;;;23.42;74.93
5952;BME280;3001;42.622;23.194;2023-07-13T03:26:04;91721.81;;;23.51;75.65
5952;BME280;3001;42.622;23.194;2023-07-13T03:28:31;91723.00;;;23.53;75.82
5952;BME280;3001;42.622;23.194;2023-07-13T03:31:00;91725.88;;;23.38;77.14
5952;BME280;3001;42.622;23.194;2023-07-13T03:33:26;91720.19;;;23.36;77.73
5952;BME280;3001;42.622;23.194;2023-07-13T03:35:53;91724.09;;;23.49;77.29
5952;BME280;3001;42.622;23.194;2023-07-13T03:38:21;91723.72;;;23.54;76.75
5952;BME280;3001;42.622;23.194;2023-07-13T03:40:48;91727.97;;;23.62;75.98
5952;BME280;3001;42.622;23.194;2023-07-13T03:43:15;91739.16;;;23.85;76.02
5952;BME280;3001;42.622;23.194;2023-07-13T03:45:41;91731.03;;;23.64;77.53
5952;BME280;3001;42.622;23.194;2023-07-13T03:48:09;91733.66;;;23.64;76.10
5952;BME280;3001;42.622;23.194;2023-07-13T03:50:36;91725.78;;;23.74;76.57
5952;BME280;3001;42.622;23.194;2023-07-13T03:53:03;91734.16;;;23.80;75.24
5952;BME280;3001;42.622;23.194;2023-07-13T03:55:32;91734.41;;;23.61;77.72
5952;BME280;3001;42.622;23.194;2023-07-13T03:58:00;91731.03;;;23.64;76.30
5952;BME280;3001;42.622;23.194;2023-07-13T04:00:27;91732.25;;;23.80;77.01
5952;BME280;3001;42.622;23.194;2023-07-13T04:02:54;91726.28;;;23.87;76.91
5952;BME280;3001;42.622;23.194;2023-07-13T04:05:20;91730.81;;;23.86;77.34
5952;BME280;3001;42.622;23.194;2023-07-13T04:07:47;91732.31;;;23.87;76.64
5952;BME280;3001;42.622;23.194;2023-07-13T04:10:14;91714.53;;;23.88;78.23
5952;BME280;3001;42.622;23.194;2023-07-13T04:12:42;91721.09;;;24.08;73.07
5952;BME280;3001;42.622;23.194;2023-07-13T04:15:09;91724.91;;;24.10;75.57
5952;BME280;3001;42.622;23.194;2023-07-13T04:17:35;91724.50;;;24.12;75.20
5952;BME280;3001;42.622;23.194;2023-07-13T04:20:03;91720.63;;;23.99;77.83
5952;BME280;3001;42.622;23.194;2023-07-13T04:22:30;91723.00;;;24.11;78.97
5952;BME280;3001;42.622;23.194;2023-07-13T04:24:56;91730.22;;;24.17;78.36
5952;BME280;3001;42.622;23.194;2023-07-13T04:27:23;91727.63;;;24.28;77.99
5952;BME280;3001;42.622;23.194;2023-07-13T04:29:51;91726.50;;;24.32;77.77
5952;BME280;3001;42.622;23.194;2023-07-13T04:32:18;91721.53;;;24.24;80.18
5952;BME280;3001;42.622;23.194;2023-07-13T04:34:44;91730.91;;;24.07;82.35
5952;BME280;3001;42.622;23.194;2023-07-13T04:37:11;91729.44;;;24.10;82.69
5952;BME280;3001;42.622;23.194;2023-07-13T04:39:38;91738.00;;;23.82;83.71
5952;BME280;3001;42.622;23.194;2023-07-13T04:42:05;91736.59;;;24.02;83.65
5952;BME280;3001;42.622;23.194;2023-07-13T04:44:32;91733.97;;;24.09;84.06
5952;BME280;3001;42.622;23.194;2023-07-13T04:47:00;91737.81;;;24.15;84.19
5952;BME280;3001;42.622;23.194;2023-07-13T04:49:26;91746.53;;;24.16;83.63
5952;BME280;3001;42.622;23.194;2023-07-13T04:51:53;91742.41;;;24.22;84.13
5952;BME280;3001;42.622;23.194;2023-07-13T04:54:20;91746.22;;;24.28;84.75
5952;BME280;3001;42.622;23.194;2023-07-13T04:56:47;91745.09;;;24.36;85.40
5952;BME280;3001;42.622;23.194;2023-07-13T04:59:14;91748.16;;;24.34;85.62
5952;BME280;3001;42.622;23.194;2023-07-13T05:01:41;91748.13;;;24.31;85.43
5952;BME280;3001;42.622;23.194;2023-07-13T05:04:09;91753.50;;;24.45;85.12
5952;BME280;3001;42.622;23.194;2023-07-13T05:06:36;91757.69;;;24.49;85.27
5952;BME280;3001;42.622;23.194;2023-07-13T05:09:02;91756.03;;;24.20;87.03
5952;BME280;3001;42.622;23.194;2023-07-13T05:11:29;91760.69;;;24.44;85.88
5952;BME280;3001;42.622;23.194;2023-07-13T05:13:56;91764.50;;;24.47;88.24
5952;BME280;3001;42.622;23.194;2023-07-13T05:16:23;91760.78;;;24.51;86.49
5952;BME280;3001;42.622;23.194;2023-07-13T05:18:49;91760.50;;;24.77;84.79
5952;BME280;3001;42.622;23.194;2023-07-13T05:21:17;91761.66;;;24.86;81.56
5952;BME280;3001;42.622;23.194;2023-07-13T05:23:44;91766.84;;;24.52;82.22
5952;BME280;3001;42.622;23.194;2023-07-13T05:26:11;91767.25;;;24.61;85.29
5952;BME280;3001;42.622;23.194;2023-07-13T05:28:39;91763.47;;;24.65;89.49
5952;BME280;3001;42.622;23.194;2023-07-13T05:31:07;91766.94;;;24.76;90.34
5952;BME280;3001;42.622;23.194;2023-07-13T05:33:34;91763.91;;;24.74;91.98
5952;BME280;3001;42.622;23.194;2023-07-13T05:36:00;91773.38;;;24.72;91.69
5952;BME280;3001;42.622;23.194;2023-07-13T05:38:29;91766.94;;;24.79;91.15
5952;BME280;3001;42.622;23.194;2023-07-13T05:40:56;91771.50;;;24.79;89.75
5952;BME280;3001;42.622;23.194;2023-07-13T05:43:23;91786.09;;;25.27;85.18
5952;BME280;3001;42.622;23.194;2023-07-13T05:45:52;91775.47;;;25.44;79.04
5952;BME280;3001;42.622;23.194;2023-07-13T05:48:19;91783.06;;;25.56;83.48
5952;BME280;3001;42.622;23.194;2023-07-13T05:50:46;91790.69;;;25.65;84.26
5952;BME280;3001;42.622;23.194;2023-07-13T05:53:12;91790.31;;;25.73;82.18
5952;BME280;3001;42.622;23.194;2023-07-13T05:55:42;91788.78;;;25.83;77.46
5952;BME280;3001;42.622;23.194;2023-07-13T05:58:11;91789.19;;;25.99;77.33
5952;BME280;3001;42.622;23.194;2023-07-13T06:00:37;91780.44;;;26.16;81.39
5952;BME280;3001;42.622;23.194;2023-07-13T06:03:04;91769.03;;;26.08;81.29
5952;BME280;3001;42.622;23.194;2023-07-13T06:05:32;91759.09;;;26.26;80.25
5952;BME280;3001;42.622;23.194;2023-07-13T06:07:59;91767.06;;;26.37;82.21
5952;BME280;3001;42.622;23.194;2023-07-13T06:10:26;91767.44;;;26.32;81.86
5952;BME280;3001;42.622;23.194;2023-07-13T06:12:54;91767.47;;;26.21;80.57
5952;BME280;3001;42.622;23.194;2023-07-13T06:15:21;91772.78;;;26.21;80.75
5952;BME280;3001;42.622;23.194;2023-07-13T06:17:47;91777.38;;;26.21;80.54
5952;BME280;3001;42.622;23.194;2023-07-13T06:20:14;91775.81;;;26.37;78.68
5952;BME280;3001;42.622;23.194;2023-07-13T06:22:41;91777.75;;;26.26;79.88
5952;BME280;3001;42.622;23.194;2023-07-13T06:25:08;91777.31;;;26.42;78.40
5952;BME280;3001;42.622;23.194;2023-07-13T06:27:35;91770.81;;;26.64;78.03
5952;BME280;3001;42.622;23.194;2023-07-13T06:30:04;91771.50;;;26.74;81.63
5952;BME280;3001;42.622;23.194;2023-07-13T06:32:30;91773.50;;;26.46;85.50
5952;BME280;3001;42.622;23.194;2023-07-13T06:34:57;91769.19;;;26.83;83.32
5952;BME280;3001;42.622;23.194;2023-07-13T06:37:24;91777.94;;;26.84;81.84
5952;BME280;3001;42.622;23.194;2023-07-13T06:39:51;91780.56;;;26.98;81.43
5952;BME280;3001;42.622;23.194;2023-07-13T06:42:17;91768.50;;;26.69;82.75
5952;BME280;3001;42.622;23.194;2023-07-13T06:44:44;91778.59;;;27.12;83.02
5952;BME280;3001;42.622;23.194;2023-07-13T06:47:12;91771.31;;;27.27;84.28
5952;BME280;3001;42.622;23.194;2023-07-13T06:49:39;91768.56;;;27.37;84.63
5952;BME280;3001;42.622;23.194;2023-07-13T06:52:06;91768.88;;;27.46;83.87
5952;BME280;3001;42.622;23.194;2023-07-13T06:54:33;91773.34;;;27.63;83.87
5952;BME280;3001;42.622;23.194;2023-07-13T06:57:00;91773.06;;;27.47;86.26
5952;BME280;3001;42.622;23.194;2023-07-13T06:59:27;91777.47;;;27.75;85.56
5952;BME280;3001;42.622;23.194;2023-07-13T07:01:53;91779.16;;;28.02;82.01
5952;BME280;3001;42.622;23.194;2023-07-13T07:04:21;91773.03;;;28.05;81.82
5952;BME280;3001;42.622;23.194;2023-07-13T07:06:48;91778.63;;;28.21;80.03
5952;BME280;3001;42.622;23.194;2023-07-13T07:09:15;91781.69;;;28.16;80.63
5952;BME280;3001;42.622;23.194;2023-07-13T07:11:42;91780.81;;;28.33;79.34
5952;BME280;3001;42.622;23.194;2023-07-13T07:14:09;91783.41;;;28.40;79.41
5952;BME280;3001;42.622;23.194;2023-07-13T07:16:36;91785.19;;;28.54;78.98
5952;BME280;3001;42.622;23.194;2023-07-13T07:19:02;91786.22;;;28.63;77.70
5952;BME280;3001;42.622;23.194;2023-07-13T07:21:30;91788.69;;;28.80;72.63
5952;BME280;3001;42.622;23.194;2023-07-13T07:23:57;91788.50;;;28.98;73.42
5952;BME280;3001;42.622;23.194;2023-07-13T07:26:25;91790.28;;;29.11;73.07
5952;BME280;3001;42.622;23.194;2023-07-13T07:28:52;91791.34;;;29.17;71.63
5952;BME280;3001;42.622;23.194;2023-07-13T07:31:18;91789.91;;;29.39;70.98
5952;BME280;3001;42.622;23.194;2023-07-13T07:33:45;91790.50;;;29.24;66.81
5952;BME280;3001;42.622;23.194;2023-07-13T07:36:12;91782.00;;;29.29;67.49
5952;BME280;3001;42.622;23.194;2023-07-13T07:38:40;91780.38;;;29.35;69.62
5952;BME280;3001;42.622;23.194;2023-07-13T07:41:06;91772.59;;;29.47;68.43
5952;BME280;3001;42.622;23.194;2023-07-13T07:43:33;91782.41;;;29.57;61.96
5952;BME280;3001;42.622;23.194;2023-07-13T07:46:00;91783.50;;;29.60;55.81
5952;BME280;3001;42.622;23.194;2023-07-13T07:48:27;91778.06;;;29.67;55.25
5952;BME280;3001;42.622;23.194;2023-07-13T07:50:53;91785.06;;;29.84;54.96
5952;BME280;3001;42.622;23.194;2023-07-13T07:53:20;91779.19;;;29.92;60.79
5952;BME280;3001;42.622;23.194;2023-07-13T07:55:48;91774.47;;;30.00;56.02
5952;BME280;3001;42.622;23.194;2023-07-13T07:58:15;91778.94;;;30.10;58.68
5952;BME280;3001;42.622;23.194;2023-07-13T08:00:42;91780.22;;;30.25;54.98
5952;BME280;3001;42.622;23.194;2023-07-13T08:03:09;91780.47;;;30.53;53.82
5952;BME280;3001;42.622;23.194;2023-07-13T08:05:36;91771.88;;;30.42;55.44
5952;BME280;3001;42.622;23.194;2023-07-13T08:08:03;91763.75;;;30.46;51.65
5952;BME280;3001;42.622;23.194;2023-07-13T08:10:30;91769.66;;;30.56;48.96
5952;BME280;3001;42.622;23.194;2023-07-13T08:12:58;91771.84;;;30.65;48.44
5952;BME280;3001;42.622;23.194;2023-07-13T08:15:25;91761.06;;;30.68;52.53
5952;BME280;3001;42.622;23.194;2023-07-13T08:17:51;91769.19;;;30.84;52.49
5952;BME280;3001;42.622;23.194;2023-07-13T08:20:18;91772.00;;;30.97;39.74
5952;BME280;3001;42.622;23.194;2023-07-13T08:22:45;91772.69;;;31.01;43.08
5952;BME280;3001;42.622;23.194;2023-07-13T08:25:11;91769.31;;;31.16;41.98
5952;BME280;3001;42.622;23.194;2023-07-13T08:27:38;91766.34;;;31.30;43.19
5952;BME280;3001;42.622;23.194;2023-07-13T08:30:07;91763.94;;;31.52;45.71
5952;BME280;3001;42.622;23.194;2023-07-13T08:32:36;91772.25;;;31.77;43.31
5952;BME280;3001;42.622;23.194;2023-07-13T08:35:04;91775.69;;;31.77;44.41
5952;BME280;3001;42.622;23.194;2023-07-13T08:37:31;91770.91;;;32.17;39.07
5952;BME280;3001;42.622;23.194;2023-07-13T08:39:58;91754.94;;;32.42;44.38
5952;BME280;3001;42.622;23.194;2023-07-13T08:42:32;91755.50;;;32.49;42.54
5952;BME280;3001;42.622;23.194;2023-07-13T08:45:14;91755.16;;;32.47;40.98
5952;BME280;3001;42.622;23.194;2023-07-13T08:47:46;91756.75;;;32.60;38.55
5952;BME280;3001;42.622;23.194;2023-07-13T08:50:17;91744.34;;;32.63;42.26
5952;BME280;3001;42.622;23.194;2023-07-13T08:52:46;91746.00;;;32.89;46.79
5952;BME280;3001;42.622;23.194;2023-07-13T08:55:16;91759.09;;;32.87;44.41
5952;BME280;3001;42.622;23.194;2023-07-13T08:57:48;91778.03;;;32.99;43.20
5952;BME280;3001;42.622;23.194;2023-07-13T09:00:19;91776.59;;;32.95;42.20
5952;BME280;3001;42.622;23.194;2023-07-13T09:02:52;91769.78;;;33.19;41.91
5952;BME280;3001;42.622;23.194;2023-07-13T09:05:26;91767.22;;;33.28;43.57
5952;BME280;3001;42.622;23.194;2023-07-13T09:08:12;91779.06;;;33.30;43.30
5952;BME280;3001;42.622;23.194;2023-07-13T09:10:45;91785.41;;;33.24;42.65
5952;BME280;3001;42.622;23.194;2023-07-13T09:13:22;91790.28;;;33.29;42.98
5952;BME280;3001;42.622;23.194;2023-07-13T09:15:55;91797.34;;;33.64;41.53
5952;BME280;3001;42.622;23.194;2023-07-13T09:18:26;91794.91;;;33.69;40.06
5952;BME280;3001;42.622;23.194;2023-07-13T09:20:57;91794.22;;;33.65;40.80
5952;BME280;3001;42.622;23.194;2023-07-13T09:23:27;91803.00;;;33.82;42.38
5952;BME280;3001;42.622;23.194;2023-07-13T09:26:00;91804.72;;;34.01;40.95
5952;BME280;3001;42.622;23.194;2023-07-13T09:28:34;91807.00;;;34.02;40.44
5952;BME280;3001;42.622;23.194;2023-07-13T09:31:07;91815.28;;;33.95;37.81
5952;BME280;3001;42.622;23.194;2023-07-13T09:33:35;91831.03;;;34.09;34.68
5952;BME280;3001;42.622;23.194;2023-07-13T09:36:19;91823.25;;;34.11;35.26
5952;BME280;3001;42.622;23.194;2023-07-13T09:38:48;91816.13;;;34.05;37.09
5952;BME280;3001;42.622;23.194;2023-07-13T09:41:23;91822.84;;;34.25;36.54
5952;BME280;3001;42.622;23.194;2023-07-13T09:44:09;91817.44;;;34.38;37.32
5952;BME280;3001;42.622;23.194;2023-07-13T09:46:43;91813.22;;;34.49;36.93
5952;BME280;3001;42.622;23.194;2023-07-13T09:49:11;91812.22;;;34.55;39.37
5952;BME280;3001;42.622;23.194;2023-07-13T09:51:38;91802.47;;;34.58;38.60
5952;BME280;3001;42.622;23.194;2023-07-13T09:54:05;91804.97;;;34.65;37.13
5952;BME280;3001;42.622;23.194;2023-07-13T09:56:32;91797.28;;;34.76;38.40
5952;BME280;3001;42.622;23.194;2023-07-13T09:58:58;91796.59;;;34.84;35.66
5952;BME280;3001;42.622;23.194;2023-07-13T10:01:32;91793.09;;;34.96;37.43
5952;BME280;3001;42.622;23.194;2023-07-13T10:04:01;91796.34;;;34.57;34.09
5952;BME280;3001;42.622;23.194;2023-07-13T10:06:28;91788.91;;;34.95;34.22
5952;BME280;3001;42.622;23.194;2023-07-13T10:08:56;91778.88;;;35.17;36.35
5952;BME280;3001;42.622;23.194;2023-07-13T10:11:26;91783.53;;;35.17;34.82
5952;BME280;3001;42.622;23.194;2023-07-13T10:13:56;91773.59;;;34.80;35.31
5952;BME280;3001;42.622;23.194;2023-07-13T10:16:27;91778.00;;;35.20;34.11
5952;BME280;3001;42.622;23.194;2023-07-13T10:18:59;91774.44;;;35.32;37.15
5952;BME280;3001;42.622;23.194;2023-07-13T10:21:31;91781.13;;;35.40;36.46
5952;BME280;3001;42.622;23.194;2023-07-13T10:24:04;91767.66;;;35.71;36.63
5952;BME280;3001;42.622;23.194;2023-07-13T10:26:33;91778.75;;;36.03;36.26
5952;BME280;3001;42.622;23.194;2023-07-13T10:29:05;91784.34;;;35.57;36.18
5952;BME280;3001;42.622;23.194;2023-07-13T10:31:34;91779.56;;;35.82;35.54
5952;BME280;3001;42.622;23.194;2023-07-13T10:34:03;91783.56;;;35.69;36.80
5952;BME280;3001;42.622;23.194;2023-07-13T10:36:35;91771.78;;;35.63;35.83
5952;BME280;3001;42.622;23.194;2023-07-13T10:39:06;91771.63;;;35.57;35.23
5952;BME280;3001;42.622;23.194;2023-07-13T10:41:37;91762.44;;;35.55;36.53
5952;BME280;3001;42.622;23.194;2023-07-13T10:44:12;91762.19;;;35.62;37.55
5952;BME280;3001;42.622;23.194;2023-07-13T10:46:43;91762.25;;;35.71;35.96
5952;BME280;3001;42.622;23.194;2023-07-13T10:49:10;91749.59;;;35.68;38.55
5952;BME280;3001;42.622;23.194;2023-07-13T10:51:40;91748.75;;;35.80;37.98
5952;BME280;3001;42.622;23.194;2023-07-13T10:54:21;91743.03;;;35.78;37.95
5952;BME280;3001;42.622;23.194;2023-07-13T10:56:53;91746.34;;;35.82;37.65
5952;BME280;3001;42.622;23.194;2023-07-13T10:59:33;91743.50;;;35.76;39.92
5952;BME280;3001;42.622;23.194;2023-07-13T11:02:10;91735.69;;;35.78;38.38
5952;BME280;3001;42.622;23.194;2023-07-13T11:04:42;91731.50;;;35.86;38.00
5952;BME280;3001;42.622;23.194;2023-07-13T11:07:19;91732.22;;;35.78;36.40
5952;BME280;3001;42.622;23.194;2023-07-13T11:09:50;91733.16;;;35.93;36.63
5952;BME280;3001;42.622;23.194;2023-07-13T11:15:14;91729.44;;;35.99;37.18
5952;BME280;3001;42.622;23.194;2023-07-13T11:17:49;91712.31;;;35.63;38.03
5952;BME280;3001;42.622;23.194;2023-07-13T11:20:22;91713.75;;;35.76;37.17
5952;BME280;3001;42.622;23.194;2023-07-13T11:22:52;91708.94;;;35.80;35.46
5952;BME280;3001;42.622;23.194;2023-07-13T11:25:34;91714.34;;;35.80;37.41
5952;BME280;3001;42.622;23.194;2023-07-13T11:28:15;91705.47;;;35.49;34.06
5952;BME280;3001;42.622;23.194;2023-07-13T11:30:47;91703.78;;;35.73;36.41
5952;BME280;3001;42.622;23.194;2023-07-13T11:33:17;91706.28;;;35.98;37.26
5952;BME280;3001;42.622;23.194;2023-07-13T11:35:50;91704.50;;;36.04;36.48
5952;BME280;3001;42.622;23.194;2023-07-13T11:38:21;91709.81;;;36.17;38.50
5952;BME280;3001;42.622;23.194;2023-07-13T11:40:51;91706.94;;;36.11;36.44
5952;BME280;3001;42.622;23.194;2023-07-13T11:43:19;91706.50;;;36.13;35.02
5952;BME280;3001;42.622;23.194;2023-07-13T11:45:49;91704.88;;;36.24;37.82
5952;BME280;3001;42.622;23.194;2023-07-13T11:48:25;91709.06;;;36.16;33.90
5952;BME280;3001;42.622;23.194;2023-07-13T11:50:56;91703.31;;;36.14;38.10
5952;BME280;3001;42.622;23.194;2023-07-13T11:53:28;91703.66;;;36.25;35.73
5952;BME280;3001;42.622;23.194;2023-07-13T11:55:56;91699.75;;;36.35;37.08
5952;BME280;3001;42.622;23.194;2023-07-13T11:58:24;91690.59;;;36.33;36.26
5952;BME280;3001;42.622;23.194;2023-07-13T12:00:55;91698.25;;;36.52;33.01
5952;BME280;3001;42.622;23.194;2023-07-13T12:03:25;91696.22;;;36.56;34.40
5952;BME280;3001;42.622;23.194;2023-07-13T12:05:56;91688.53;;;36.54;36.80
5952;BME280;3001;42.622;23.194;2023-07-13T12:08:25;91688.38;;;36.67;36.68
5952;BME280;3001;42.622;23.194;2023-07-13T12:11:04;91679.19;;;36.64;36.21
5952;BME280;3001;42.622;23.194;2023-07-13T12:13:36;91668.94;;;36.41;36.43
5952;BME280;3001;42.622;23.194;2023-07-13T12:16:11;91682.19;;;36.48;38.45
5952;BME280;3001;42.622;23.194;2023-07-13T12:18:38;91678.44;;;36.55;38.73
5952;BME280;3001;42.622;23.194;2023-07-13T12:21:12;91674.97;;;36.54;39.71
5952;BME280;3001;42.622;23.194;2023-07-13T12:23:43;91676.50;;;36.55;38.03
5952;BME280;3001;42.622;23.194;2023-07-13T12:26:11;91669.72;;;36.60;36.57
5952;BME280;3001;42.622;23.194;2023-07-13T12:28:43;91660.84;;;36.68;33.86
5952;BME280;3001;42.622;23.194;2023-07-13T12:31:33;91664.28;;;36.69;32.33
5952;BME280;3001;42.622;23.194;2023-07-13T12:34:02;91658.44;;;36.61;35.18
5952;BME280;3001;42.622;23.194;2023-07-13T12:36:34;91662.16;;;36.73;33.63
5952;BME280;3001;42.622;23.194;2023-07-13T12:39:13;91665.19;;;36.75;34.18
5952;BME280;3001;42.622;23.194;2023-07-13T12:41:41;91655.25;;;36.81;34.19
5952;BME280;3001;42.622;23.194;2023-07-13T12:44:12;91651.97;;;36.59;33.62
5952;BME280;3001;42.622;23.194;2023-07-13T12:46:39;91641.88;;;36.59;34.75
5952;BME280;3001;42.622;23.194;2023-07-13T12:49:07;91637.06;;;36.63;35.56
5952;BME280;3001;42.622;23.194;2023-07-13T12:51:34;91639.00;;;36.81;36.33
5952;BME280;3001;42.622;23.194;2023-07-13T12:54:14;91641.38;;;36.97;36.13
5952;BME280;3001;42.622;23.194;2023-07-13T12:56:41;91642.56;;;36.96;32.86
5952;BME280;3001;42.622;23.194;2023-07-13T12:59:15;91644.97;;;36.94;33.60
5952;BME280;3001;42.622;23.194;2023-07-13T13:01:43;91641.38;;;37.06;33.53
5952;BME280;3001;42.622;23.194;2023-07-13T13:04:10;91639.09;;;37.13;33.88
5952;BME280;3001;42.622;23.194;2023-07-13T13:06:38;91637.31;;;36.92;33.89
5952;BME280;3001;42.622;23.194;2023-07-13T13:09:11;91628.75;;;37.03;32.16
5952;BME280;3001;42.622;23.194;2023-07-13T13:11:39;91630.50;;;37.15;32.87
5952;BME280;3001;42.622;23.194;2023-07-13T13:14:05;91630.69;;;36.84;31.51
5952;BME280;3001;42.622;23.194;2023-07-13T13:16:34;91629.81;;;36.87;32.58
5952;BME280;3001;42.622;23.194;2023-07-13T13:19:12;91628.91;;;36.90;32.07
5952;BME280;3001;42.622;23.194;2023-07-13T13:21:39;91632.34;;;36.91;32.28